createdAt,value
2022-09-17T00:01:07.407Z,2.20
2022-09-17T00:03:35.110Z,2.15
2022-09-17T00:06:04.459Z,2.10
2022-09-17T00:08:32.181Z,2.17
2022-09-17T00:11:05.992Z,2.30
2022-09-17T00:13:32.720Z,2.20
2022-09-17T00:15:59.618Z,2.28
2022-09-17T00:18:26.994Z,2.20
2022-09-17T00:20:53.809Z,1.95
2022-09-17T00:23:20.542Z,2.17
2022-09-17T00:25:47.271Z,2.40
2022-09-17T00:28:14.853Z,1.88
2022-09-17T00:30:43.233Z,2.30
2022-09-17T00:33:13.639Z,2.20
2022-09-17T00:35:40.402Z,2.10
2022-09-17T00:38:07.241Z,2.00
2022-09-17T00:40:34.856Z,2.20
2022-09-17T00:43:02.294Z,2.25
2022-09-17T00:45:32.099Z,1.80
2022-09-17T00:48:05.469Z,1.92
2022-09-17T00:50:41.585Z,2.15
2022-09-17T00:53:16.873Z,1.85
2022-09-17T00:55:48.770Z,2.20
2022-09-17T00:58:18.286Z,1.98
2022-09-17T01:00:46.981Z,1.70
2022-09-17T01:03:14.228Z,2.05
2022-09-17T01:05:54.339Z,2.13
2022-09-17T01:08:27.051Z,2.25
2022-09-17T01:11:25.513Z,2.08
2022-09-17T01:13:58.321Z,2.05
2022-09-17T01:16:34.212Z,2.30
2022-09-17T01:19:38.954Z,2.10
2022-09-17T01:22:26.048Z,2.13
2022-09-17T01:25:17.427Z,1.90
2022-09-17T01:28:02.121Z,2.33
2022-09-17T01:30:38.893Z,2.20
2022-09-17T01:33:26.319Z,1.75
2022-09-17T01:35:59.264Z,1.63
2022-09-17T01:38:49.473Z,1.33
2022-09-17T01:41:33.615Z,1.40
2022-09-17T01:44:39.806Z,1.30
2022-09-17T01:47:23.163Z,1.40
2022-09-17T01:49:55.212Z,1.40
2022-09-17T01:52:25.368Z,1.33
2022-09-17T01:54:56.716Z,1.20
2022-09-17T01:57:44.139Z,1.20
2022-09-17T02:00:17.462Z,1.35
2022-09-17T02:02:56.232Z,1.30
2022-09-17T02:05:35.814Z,1.40
2022-09-17T02:08:14.831Z,1.40
2022-09-17T02:10:48.632Z,1.30
2022-09-17T02:13:24.297Z,1.38
2022-09-17T02:16:07.395Z,1.83
2022-09-17T02:18:44.919Z,1.60
2022-09-17T02:21:45.214Z,1.20
2022-09-17T02:24:27.393Z,1.30
2022-09-17T02:27:03.065Z,1.00
2022-09-17T02:29:42.177Z,1.23
2022-09-17T02:32:09.876Z,1.02
2022-09-17T02:34:36.749Z,1.08
2022-09-17T02:37:04.669Z,1.40
2022-09-17T02:39:31.802Z,1.15
2022-09-17T02:42:20.712Z,0.93
2022-09-17T02:45:24.974Z,1.40
2022-09-17T02:47:57.908Z,1.00
2022-09-17T02:50:48.734Z,0.90
2022-09-17T02:53:33.618Z,1.17
2022-09-17T02:56:16.152Z,0.90
2022-09-17T02:58:53.695Z,1.00
2022-09-17T03:01:34.213Z,0.93
2022-09-17T03:04:03.681Z,0.90
2022-09-17T03:06:30.679Z,1.00
2022-09-17T03:08:57.394Z,1.10
2022-09-17T03:11:25.076Z,0.90
2022-09-17T03:13:52.043Z,1.00
2022-09-17T03:16:18.847Z,1.05
2022-09-17T03:18:45.554Z,1.35
2022-09-17T03:21:12.681Z,1.17
2022-09-17T03:23:39.877Z,1.10
2022-09-17T03:26:06.734Z,1.17
2022-09-17T03:28:33.612Z,1.05
2022-09-17T03:31:00.339Z,1.00
2022-09-17T03:33:27.080Z,1.05
2022-09-17T03:35:53.871Z,1.08
2022-09-17T03:38:20.715Z,1.20
2022-09-17T03:41:01.200Z,1.10
2022-09-17T03:43:28.219Z,1.13
2022-09-17T03:45:55.539Z,0.93
2022-09-17T03:48:23.111Z,1.00
2022-09-17T03:50:50.162Z,0.90
2022-09-17T03:53:17.218Z,0.90
2022-09-17T03:55:44.125Z,0.90
2022-09-17T03:58:11.145Z,0.90
2022-09-17T04:00:38.127Z,0.88
2022-09-17T04:03:05.544Z,0.80
2022-09-17T04:05:32.305Z,0.90
2022-09-17T04:07:59.292Z,0.80
2022-09-17T04:10:26.100Z,0.85
2022-09-17T04:12:52.798Z,0.85
2022-09-17T04:15:19.492Z,0.95
2022-09-17T04:17:46.268Z,0.80
2022-09-17T04:20:13.055Z,0.93
2022-09-17T04:22:39.853Z,0.80
2022-09-17T04:25:07.042Z,0.98
2022-09-17T04:27:33.744Z,0.77
2022-09-17T04:30:01.628Z,1.10
2022-09-17T04:32:28.486Z,1.00
2022-09-17T04:34:55.216Z,1.00
2022-09-17T04:37:22.005Z,1.10
2022-09-17T04:39:48.743Z,0.85
2022-09-17T04:42:16.260Z,0.90
2022-09-17T04:44:43.232Z,1.05
2022-09-17T04:47:09.972Z,0.90
2022-09-17T04:49:36.685Z,1.00
2022-09-17T04:52:03.652Z,0.98
2022-09-17T04:54:30.358Z,1.20
2022-09-17T04:56:57.983Z,1.20
2022-09-17T04:59:24.743Z,1.05
2022-09-17T05:01:51.604Z,1.33
2022-09-17T05:04:18.503Z,1.10
2022-09-17T05:06:45.268Z,1.08
2022-09-17T05:09:12.039Z,1.05
2022-09-17T05:11:38.797Z,1.02
2022-09-17T05:14:05.543Z,1.30
2022-09-17T05:16:32.381Z,1.35
2022-09-17T05:18:59.357Z,1.30
2022-09-17T05:21:26.262Z,1.30
2022-09-17T05:23:53.087Z,1.13
2022-09-17T05:26:19.922Z,1.25
2022-09-17T05:28:46.672Z,1.30
2022-09-17T05:31:16.249Z,1.10
2022-09-17T05:33:43.028Z,1.35
2022-09-17T05:36:09.990Z,1.20
2022-09-17T05:38:36.821Z,1.10
2022-09-17T05:41:07.202Z,1.02
2022-09-17T05:43:34.433Z,1.20
2022-09-17T05:46:05.295Z,1.35
2022-09-17T05:48:32.473Z,1.75
2022-09-17T05:50:59.209Z,1.20
2022-09-17T05:53:25.930Z,1.20
2022-09-17T05:55:59.212Z,1.30
2022-09-17T05:58:27.240Z,1.13
2022-09-17T06:00:56.213Z,1.40
2022-09-17T06:03:23.086Z,1.50
2022-09-17T06:06:00.476Z,1.65
2022-09-17T06:08:28.754Z,2.17
2022-09-17T06:10:58.937Z,2.28
2022-09-17T06:13:28.487Z,2.10
2022-09-17T06:15:55.252Z,2.10
2022-09-17T06:18:22.054Z,2.25
2022-09-17T06:20:56.269Z,1.92
2022-09-17T06:25:57.028Z,1.60
2022-09-17T06:28:24.313Z,1.70
2022-09-17T06:30:54.388Z,2.10
2022-09-17T06:33:21.939Z,1.90
2022-09-17T06:35:48.795Z,1.35
2022-09-17T06:38:16.028Z,1.35
2022-09-17T06:40:42.951Z,1.50
2022-09-17T06:43:09.862Z,1.50
2022-09-17T06:45:36.620Z,1.25
2022-09-17T06:48:06.801Z,1.30
2022-09-17T06:50:33.516Z,1.15
2022-09-17T06:53:00.280Z,1.30
2022-09-17T06:55:27.013Z,1.20
2022-09-17T06:57:53.845Z,1.30
2022-09-17T07:00:20.771Z,1.05
2022-09-17T07:03:01.016Z,1.00
2022-09-17T07:05:29.256Z,1.10
2022-09-17T07:07:56.377Z,1.30
2022-09-17T07:10:23.496Z,1.38
2022-09-17T07:12:50.394Z,1.23
2022-09-17T07:15:17.137Z,1.65
2022-09-17T07:17:44.558Z,1.15
2022-09-17T07:20:11.805Z,1.13
2022-09-17T07:22:38.643Z,1.20
2022-09-17T07:25:06.019Z,1.00
2022-09-17T07:27:32.988Z,1.17
2022-09-17T07:29:59.732Z,1.30
2022-09-17T07:32:28.857Z,1.02
2022-09-17T07:34:55.560Z,0.90
2022-09-17T07:37:22.285Z,1.20
2022-09-17T07:39:49.157Z,1.00
2022-09-17T07:42:16.058Z,0.80
2022-09-17T07:44:42.915Z,0.88
2022-09-17T07:47:10.046Z,0.93
2022-09-17T07:49:36.817Z,1.00
2022-09-17T07:52:06.504Z,0.98
2022-09-17T07:54:39.432Z,0.90
2022-09-17T07:57:06.170Z,0.95
2022-09-17T07:59:33.008Z,0.88
2022-09-17T08:01:59.999Z,0.75
2022-09-17T08:04:26.859Z,0.82
2022-09-17T08:06:53.606Z,0.70
2022-09-17T08:09:21.235Z,0.68
2022-09-17T08:11:56.421Z,0.90
2022-09-17T08:14:28.447Z,0.85
2022-09-17T08:16:56.122Z,1.00
2022-09-17T08:19:22.839Z,0.80
2022-09-17T08:21:49.532Z,1.17
2022-09-17T08:24:16.253Z,0.82
2022-09-17T08:26:43.163Z,1.10
2022-09-17T08:29:11.302Z,0.90
2022-09-17T08:31:38.136Z,0.98
2022-09-17T08:34:10.460Z,0.93
2022-09-17T08:36:37.610Z,0.60
2022-09-17T08:39:04.507Z,0.80
2022-09-17T08:41:46.078Z,0.63
2022-09-17T08:44:25.049Z,0.70
2022-09-17T08:47:01.713Z,0.80
2022-09-17T08:49:36.059Z,0.80
2022-09-17T08:52:24.204Z,0.68
2022-09-17T08:55:18.629Z,0.60
2022-09-17T08:58:22.310Z,0.68
2022-09-17T09:01:23.989Z,0.60
2022-09-17T09:04:19.358Z,0.68
2022-09-17T09:07:08.285Z,0.80
2022-09-17T09:09:44.715Z,0.77
2022-09-17T09:12:22.016Z,0.82
2022-09-17T09:14:57.379Z,0.60
2022-09-17T09:17:29.652Z,0.80
2022-09-17T09:19:56.502Z,0.90
2022-09-17T09:22:35.350Z,0.60
2022-09-17T09:25:16.792Z,1.10
2022-09-17T09:28:01.569Z,0.70
2022-09-17T09:30:38.306Z,0.80
2022-09-17T09:33:11.446Z,0.70
2022-09-17T09:35:41.826Z,0.90
2022-09-17T09:38:24.967Z,0.55
2022-09-17T09:41:12.109Z,0.75
2022-09-17T09:44:05.010Z,0.60
2022-09-17T09:47:01.937Z,0.50
2022-09-17T09:50:03.574Z,0.82
2022-09-17T09:53:04.561Z,0.75
2022-09-17T09:56:17.558Z,0.50
2022-09-17T09:58:44.308Z,0.52
2022-09-17T10:01:17.008Z,0.70
2022-09-17T10:03:46.232Z,0.50
2022-09-17T10:06:17.338Z,0.50
2022-09-17T10:08:50.156Z,0.60
2022-09-17T10:11:22.046Z,0.70
2022-09-17T10:13:49.063Z,0.60
2022-09-17T10:16:25.391Z,0.70
2022-09-17T10:19:07.455Z,0.70
2022-09-17T10:21:35.472Z,0.63
2022-09-17T10:24:05.155Z,0.68
2022-09-17T10:26:37.036Z,0.70
2022-09-17T10:29:11.239Z,0.57
2022-09-17T10:34:26.936Z,0.40
2022-09-17T10:36:56.135Z,0.70
2022-09-17T10:39:38.590Z,0.80
2022-09-17T10:42:11.263Z,0.90
2022-09-17T10:44:39.472Z,0.52
2022-09-17T10:47:29.046Z,0.70
2022-09-17T10:50:24.950Z,0.50
2022-09-17T10:52:57.531Z,0.50
2022-09-17T10:55:33.588Z,0.60
2022-09-17T10:58:07.207Z,0.68
2022-09-17T11:01:03.009Z,0.50
2022-09-17T11:03:41.889Z,0.55
2022-09-17T11:07:06.077Z,0.60
2022-09-17T11:10:07.256Z,0.50
2022-09-17T11:12:42.114Z,0.60
2022-09-17T11:15:20.526Z,0.40
2022-09-17T11:18:09.122Z,0.57
2022-09-17T11:20:58.650Z,0.70
2022-09-17T11:23:58.027Z,0.50
2022-09-17T11:26:27.479Z,0.68
2022-09-17T11:29:15.886Z,0.80
2022-09-17T11:32:04.487Z,0.75
2022-09-17T11:34:35.009Z,1.10
2022-09-17T11:37:14.120Z,0.90
2022-09-17T11:39:52.834Z,0.70
2022-09-17T11:42:24.535Z,0.75
2022-09-17T11:45:03.327Z,1.27
2022-09-17T11:47:36.025Z,1.00
2022-09-17T11:50:23.291Z,0.80
2022-09-17T11:53:04.694Z,0.80
2022-09-17T11:55:40.087Z,0.73
2022-09-17T11:58:27.699Z,0.50
2022-09-17T12:01:02.556Z,0.73
2022-09-17T12:04:00.526Z,0.88
2022-09-17T12:06:37.132Z,0.70
2022-09-17T12:09:25.979Z,0.50
2022-09-17T12:12:26.408Z,0.68
2022-09-17T12:15:14.786Z,0.60
2022-09-17T12:18:08.717Z,0.60
2022-09-17T12:20:45.383Z,0.57
2022-09-17T12:23:18.040Z,0.50
2022-09-17T12:26:18.471Z,0.47
2022-09-17T12:29:06.634Z,0.40
2022-09-17T12:31:56.292Z,0.65
2022-09-17T12:34:51.524Z,1.50
2022-09-17T12:37:30.760Z,0.70
2022-09-17T12:40:42.728Z,0.45
2022-09-17T12:43:28.778Z,0.60
2022-09-17T12:46:16.494Z,0.50
2022-09-17T12:49:07.928Z,0.80
2022-09-17T12:52:00.679Z,0.70
2022-09-17T12:54:45.527Z,0.60
2022-09-17T12:57:22.128Z,1.02
2022-09-17T13:00:06.845Z,0.60
2022-09-17T13:02:43.407Z,0.80
2022-09-17T13:05:21.561Z,0.50
2022-09-17T13:08:07.575Z,0.80
2022-09-17T13:11:11.562Z,0.50
2022-09-17T13:13:41.111Z,0.70
2022-09-17T13:16:33.565Z,0.60
2022-09-17T13:19:33.673Z,0.70
2022-09-17T13:22:21.306Z,0.93
2022-09-17T13:25:08.599Z,0.80
2022-09-17T13:27:38.718Z,0.60
2022-09-17T13:30:07.972Z,0.70
2022-09-17T13:32:39.745Z,0.80
2022-09-17T13:35:15.290Z,0.73
2022-09-17T13:37:52.834Z,0.90
2022-09-17T13:40:34.329Z,1.05
2022-09-17T13:43:04.311Z,0.80
2022-09-17T13:45:33.772Z,0.90
2022-09-17T13:48:02.166Z,0.80
2022-09-17T13:50:36.895Z,0.80
2022-09-17T13:53:15.535Z,0.90
2022-09-17T13:55:45.105Z,0.90
2022-09-17T13:58:21.054Z,0.70
2022-09-17T14:01:11.760Z,1.08
2022-09-17T14:03:42.016Z,0.60
2022-09-17T14:06:08.745Z,0.80
2022-09-17T14:08:44.769Z,0.80
2022-09-17T14:11:23.576Z,0.70
2022-09-17T14:13:52.181Z,1.05
2022-09-17T14:16:47.277Z,0.73
2022-09-17T14:19:36.903Z,0.80
2022-09-17T14:22:17.427Z,0.88
2022-09-17T14:24:44.352Z,0.80
2022-09-17T14:27:25.947Z,0.70
2022-09-17T14:30:14.736Z,1.10
2022-09-17T14:33:00.606Z,0.80
2022-09-17T14:35:48.000Z,0.60
2022-09-17T14:38:25.234Z,0.85
2022-09-17T14:41:00.375Z,0.90
2022-09-17T14:43:57.360Z,1.00
2022-09-17T14:46:48.871Z,0.90
2022-09-17T14:49:28.126Z,0.90
2022-09-17T14:51:56.767Z,0.80
2022-09-17T14:54:30.321Z,0.82
2022-09-17T14:57:17.020Z,0.70
2022-09-17T14:59:53.008Z,0.65
2022-09-17T15:02:44.166Z,0.70
2022-09-17T15:05:31.870Z,0.80
2022-09-17T15:08:10.486Z,1.00
2022-09-17T15:10:46.070Z,1.00
2022-09-17T15:13:35.465Z,1.00
2022-09-17T15:16:04.810Z,1.00
2022-09-17T15:18:44.040Z,1.00
2022-09-17T15:21:24.279Z,0.88
2022-09-17T15:23:53.599Z,1.40
2022-09-17T15:26:27.144Z,1.00
2022-09-17T15:28:55.952Z,1.40
2022-09-17T15:31:23.662Z,0.90
2022-09-17T15:33:50.883Z,0.98
2022-09-17T15:36:28.020Z,0.80
2022-09-17T15:38:54.753Z,0.98
2022-09-17T15:41:35.332Z,0.90
2022-09-17T15:44:32.122Z,0.90
2022-09-17T15:47:39.271Z,0.82
2022-09-17T15:50:21.537Z,1.00
2022-09-17T15:52:49.867Z,0.82
2022-09-17T15:55:35.480Z,0.80
2022-09-17T15:58:06.055Z,0.80
2022-09-17T16:00:32.878Z,0.70
2022-09-17T16:03:43.548Z,0.80
2022-09-17T16:06:19.620Z,0.70
2022-09-17T16:08:51.604Z,0.77
2022-09-17T16:11:21.102Z,0.70
2022-09-17T16:13:48.675Z,0.80
2022-09-17T16:16:24.399Z,1.30
2022-09-17T16:18:51.270Z,4.63
2022-09-17T16:21:19.984Z,3.00
2022-09-17T16:23:46.843Z,1.67
2022-09-17T16:26:20.410Z,1.00
2022-09-17T16:28:49.657Z,1.15
2022-09-17T16:31:16.483Z,0.98
2022-09-17T16:33:43.243Z,0.88
2022-09-17T16:36:10.055Z,0.82
2022-09-17T16:38:37.064Z,0.80
2022-09-17T16:41:06.632Z,1.00
2022-09-17T16:43:34.636Z,0.70
2022-09-17T16:46:04.029Z,0.60
2022-09-17T16:48:33.296Z,0.57
2022-09-17T16:51:01.603Z,0.80
2022-09-17T16:53:28.354Z,0.70
2022-09-17T16:55:55.104Z,0.80
2022-09-17T16:58:21.843Z,1.08
2022-09-17T17:00:48.589Z,0.85
2022-09-17T17:03:16.013Z,0.70
2022-09-17T17:05:43.518Z,0.80
2022-09-17T17:08:10.559Z,0.70
2022-09-17T17:10:40.707Z,0.60
2022-09-17T17:13:07.413Z,0.73
2022-09-17T17:15:34.134Z,0.68
2022-09-17T17:18:00.975Z,0.70
2022-09-17T17:20:27.776Z,0.70
2022-09-17T17:22:55.358Z,0.65
2022-09-17T17:25:23.977Z,1.08
2022-09-17T17:27:50.709Z,0.98
2022-09-17T17:30:17.839Z,0.80
2022-09-17T17:32:48.773Z,0.80
2022-09-17T17:35:15.765Z,1.80
2022-09-17T17:37:42.709Z,2.65
2022-09-17T17:40:10.325Z,1.40
2022-09-17T17:42:39.590Z,1.10
2022-09-17T17:45:07.518Z,1.15
2022-09-17T17:47:34.818Z,1.35
2022-09-17T17:50:01.705Z,1.45
2022-09-17T17:52:28.554Z,1.30
2022-09-17T17:54:55.311Z,1.40
2022-09-17T17:57:22.126Z,1.20
2022-09-17T17:59:48.840Z,1.30
2022-09-17T18:02:15.665Z,1.33
2022-09-17T18:04:42.576Z,1.85
2022-09-17T18:07:09.335Z,1.40
2022-09-17T18:09:36.110Z,1.38
2022-09-17T18:12:03.147Z,1.40
2022-09-17T18:14:30.059Z,1.63
2022-09-17T18:16:56.798Z,1.80
2022-09-17T18:19:23.561Z,1.50
2022-09-17T18:21:50.277Z,1.00
2022-09-17T18:24:17.077Z,1.27
2022-09-17T18:26:43.867Z,1.00
2022-09-17T18:29:11.847Z,1.10
2022-09-17T18:31:38.857Z,0.90
2022-09-17T18:34:08.232Z,1.10
2022-09-17T18:36:36.144Z,1.10
2022-09-17T18:41:52.758Z,1.40
2022-09-17T18:44:21.845Z,1.55
2022-09-17T18:46:50.249Z,1.35
2022-09-17T18:49:17.246Z,1.35
2022-09-17T18:51:44.106Z,1.30
2022-09-17T18:54:12.829Z,0.90
2022-09-17T18:56:41.697Z,1.10
2022-09-17T18:59:09.753Z,1.10
2022-09-17T19:01:36.634Z,1.30
2022-09-17T19:04:04.080Z,1.20
2022-09-17T19:06:32.299Z,1.20
2022-09-17T19:09:00.898Z,1.45
2022-09-17T19:11:27.921Z,1.30
2022-09-17T19:13:54.726Z,1.00
2022-09-17T19:16:21.573Z,1.38
2022-09-17T19:18:48.431Z,1.40
2022-09-17T19:21:17.446Z,1.50
2022-09-17T19:23:47.130Z,1.33
2022-09-17T19:26:19.535Z,1.45
2022-09-17T19:28:46.762Z,1.58
2022-09-17T19:31:15.817Z,1.75
2022-09-17T19:33:43.433Z,1.60
2022-09-17T19:36:15.875Z,1.90
2022-09-17T19:38:43.239Z,2.28
2022-09-17T19:41:13.155Z,2.20
2022-09-17T19:43:40.650Z,2.10
2022-09-17T19:46:13.879Z,1.77
2022-09-17T19:48:48.621Z,1.60
2022-09-17T19:51:16.618Z,1.65
2022-09-17T19:53:43.644Z,2.03
2022-09-17T19:56:14.996Z,2.03
2022-09-17T19:58:42.647Z,1.83
2022-09-17T20:01:09.968Z,1.40
2022-09-17T20:03:42.857Z,1.40
2022-09-17T20:06:17.516Z,1.70
2022-09-17T20:08:49.389Z,1.70
2022-09-17T20:11:17.197Z,1.67
2022-09-17T20:13:44.290Z,1.55
2022-09-17T20:16:13.730Z,1.65
2022-09-17T20:18:40.681Z,1.65
2022-09-17T20:21:25.826Z,1.70
2022-09-17T20:23:52.581Z,1.80
2022-09-17T20:26:19.302Z,1.80
2022-09-17T20:28:46.746Z,1.60
2022-09-17T20:31:22.112Z,1.60
2022-09-17T20:33:53.195Z,1.70
2022-09-17T20:36:22.550Z,1.90
2022-09-17T20:41:40.462Z,1.75
2022-09-17T20:44:07.982Z,1.50
2022-09-17T20:46:34.823Z,1.60
2022-09-17T20:49:01.664Z,1.65
2022-09-17T20:51:30.335Z,1.67
2022-09-17T20:53:57.695Z,1.85
2022-09-17T20:56:30.254Z,2.00
2022-09-17T20:59:08.621Z,1.88
2022-09-17T21:01:37.625Z,1.60
2022-09-17T21:04:07.231Z,1.88
2022-09-17T21:06:41.843Z,1.85
2022-09-17T21:09:15.848Z,1.85
2022-09-17T21:11:47.183Z,2.13
2022-09-17T21:14:15.832Z,2.00
2022-09-17T21:16:43.003Z,2.05
2022-09-17T21:19:12.290Z,1.77
2022-09-17T21:21:39.175Z,1.60
2022-09-17T21:24:07.338Z,1.77
2022-09-17T21:26:34.932Z,1.85
2022-09-17T21:29:02.352Z,1.92
2022-09-17T21:31:32.678Z,2.10
2022-09-17T21:34:05.441Z,2.10
2022-09-17T21:36:34.748Z,2.05
2022-09-17T21:39:04.330Z,1.85
2022-09-17T21:41:31.742Z,2.03
2022-09-17T21:43:59.161Z,2.10
2022-09-17T21:46:28.083Z,1.80
2022-09-17T21:48:57.401Z,2.10
2022-09-17T21:51:30.241Z,1.75
2022-09-17T21:54:00.722Z,1.70
2022-09-17T21:56:28.719Z,1.90
2022-09-17T21:59:01.191Z,1.60
2022-09-17T22:01:43.953Z,1.50
2022-09-17T22:04:13.143Z,1.23
2022-09-17T22:06:40.915Z,0.90
2022-09-17T22:09:12.501Z,1.35
2022-09-17T22:11:39.253Z,0.95
2022-09-17T22:14:11.021Z,1.20
2022-09-17T22:16:44.348Z,1.20
2022-09-17T22:19:13.156Z,1.02
2022-09-17T22:21:45.978Z,1.52
2022-09-17T22:24:14.615Z,0.90
2022-09-17T22:26:44.543Z,1.00
2022-09-17T22:29:14.057Z,0.90
2022-09-17T22:31:41.666Z,0.82
2022-09-17T22:34:10.743Z,0.90
2022-09-17T22:36:38.393Z,0.90
2022-09-17T22:39:06.405Z,0.90
2022-09-17T22:41:36.113Z,0.90
2022-09-17T22:44:06.118Z,1.00
2022-09-17T22:46:39.456Z,1.13
2022-09-17T22:49:08.067Z,1.13
2022-09-17T22:51:34.943Z,1.13
2022-09-17T22:54:01.869Z,0.80
2022-09-17T22:56:29.385Z,0.98
2022-09-17T22:58:57.606Z,1.85
2022-09-17T23:01:30.075Z,0.88
2022-09-17T23:03:58.092Z,1.05
2022-09-17T23:06:29.508Z,1.00
2022-09-17T23:08:57.118Z,1.00
2022-09-17T23:11:27.076Z,1.17
2022-09-17T23:14:01.959Z,1.58
2022-09-17T23:16:33.443Z,1.10
2022-09-17T23:19:00.251Z,1.50
2022-09-17T23:21:26.953Z,0.90
2022-09-17T23:23:53.675Z,1.35
2022-09-17T23:26:25.854Z,1.10
2022-09-17T23:28:53.112Z,0.80
2022-09-17T23:31:25.746Z,0.93
2022-09-17T23:33:53.337Z,0.88
2022-09-17T23:36:22.671Z,1.00
2022-09-17T23:38:50.411Z,1.00
2022-09-17T23:41:26.812Z,1.00
2022-09-17T23:43:55.993Z,0.90
2022-09-17T23:46:24.545Z,0.85
2022-09-17T23:48:53.427Z,0.82
2022-09-17T23:51:24.856Z,0.80
2022-09-17T23:53:52.233Z,0.98
2022-09-17T23:56:22.006Z,0.90
2022-09-17T23:58:49.938Z,1.08
